Time;durP1;ratioP1;P1;durP2;ratioP2;P2;SDS_P1;SDS_P2;PMS_P1;PMS_P2;Temp;Humidity;BMP_temperature;BMP_pressure;BME280_temperature;BME280_humidity;BME280_pressure;Samples;Min_cycle;Max_cycle;Signal;HPM_P1;HPM_P2
2023/04/08 00:00:10;;;;;;;47.40;28.10;;;11.40;90.50;;;;;;5050578;28;20060;-72
2023/04/08 00:03:15;;;;;;;42.53;27.52;;;10.10;90.30;;;;;;5050898;28;20072;-72
2023/04/08 00:06:19;;;;;;;46.83;28.17;;;10.00;89.60;;;;;;5050569;28;20056;-72
2023/04/08 00:09:23;;;;;;;40.55;26.60;;;9.70;90.40;;;;;;5050584;28;20071;-72
2023/04/08 00:12:27;;;;;;;42.60;25.67;;;10.50;91.50;;;;;;5050915;28;20072;-71
2023/04/08 00:15:31;;;;;;;43.58;25.88;;;9.70;90.90;;;;;;5050735;28;20048;-72
2023/04/08 00:18:37;;;;;;;45.00;27.52;;;9.90;90.60;;;;;;5050575;28;20052;-72
2023/04/08 00:21:40;;;;;;;42.35;26.63;;;10.20;90.10;;;;;;5050813;28;20043;-72
2023/04/08 00:24:44;;;;;;;42.90;26.83;;;10.10;90.10;;;;;;5049313;28;20409;-72
2023/04/08 00:27:48;;;;;;;53.25;25.90;;;9.80;89.80;;;;;;5050673;28;20036;-71
2023/04/08 00:30:52;;;;;;;42.65;27.85;;;10.70;90.00;;;;;;5050637;28;20052;-71
2023/04/08 00:33:57;;;;;;;41.65;26.55;;;9.50;89.10;;;;;;5049640;28;20036;-72
2023/04/08 00:37:01;;;;;;;45.63;28.13;;;10.30;90.10;;;;;;5051361;28;20048;-71
2023/04/08 00:40:05;;;;;;;46.20;27.02;;;10.00;90.20;;;;;;5050125;28;20044;-71
2023/04/08 00:43:09;;;;;;;46.20;26.55;;;8.50;88.70;;;;;;5050581;28;20043;-71
2023/04/08 00:46:14;;;;;;;48.38;26.35;;;10.00;89.70;;;;;;5051288;28;20393;-71
2023/04/08 00:49:19;;;;;;;45.75;27.75;;;10.10;89.30;;;;;;5050918;28;20511;-71
2023/04/08 00:52:22;;;;;;;50.30;27.90;;;9.90;89.90;;;;;;5055562;28;20396;-71
2023/04/08 00:55:26;;;;;;;42.10;25.70;;;9.40;89.90;;;;;;5053683;28;20044;-71
2023/04/08 00:58:30;;;;;;;45.17;25.95;;;9.70;90.50;;;;;;5053361;28;20036;-72
2023/04/08 01:01:56;;;;;;;37.60;24.77;;;10.10;91.00;;;;;;5054734;28;20048;-72
2023/04/08 01:05:24;;;;;;;35.35;23.05;;;9.20;91.40;;;;;;5054687;28;20056;-71
2023/04/08 01:08:30;;;;;;;33.85;21.52;;;8.00;90.70;;;;;;5054453;28;20512;-72
2023/04/08 01:11:36;;;;;;;33.08;20.13;;;8.80;90.60;;;;;;5053647;28;20052;-71
2023/04/08 01:14:44;;;;;;;25.83;17.10;;;10.40;90.70;;;;;;5054141;28;20397;-72
2023/04/08 01:17:51;;;;;;;24.85;17.27;;;9.50;90.20;;;;;;5053174;28;20052;-71
2023/04/08 01:20:56;;;;;;;29.52;17.75;;;10.00;90.40;;;;;;5054217;28;20044;-71
2023/04/08 01:24:10;;;;;;;26.60;16.73;;;8.70;90.00;;;;;;5052971;28;20515;-71
2023/04/08 01:27:15;;;;;;;27.02;16.55;;;10.00;90.20;;;;;;5053934;28;20056;-71
2023/04/08 01:30:20;;;;;;;32.10;17.08;;;9.80;90.00;;;;;;5054163;28;20064;-72
2023/04/08 01:33:27;;;;;;;24.88;15.77;;;9.70;90.80;;;;;;5053973;28;20048;-70
2023/04/08 01:36:34;;;;;;;26.15;16.45;;;9.60;90.80;;;;;;5053459;28;20060;-71
2023/04/08 01:39:40;;;;;;;24.55;16.92;;;9.20;90.50;;;;;;5052817;28;20072;-70
2023/04/08 01:42:47;;;;;;;30.95;22.00;;;9.80;90.40;;;;;;5053552;28;20056;-71
2023/04/08 01:45:56;;;;;;;34.80;22.88;;;9.20;90.20;;;;;;5052670;28;20044;-71
2023/04/08 01:49:02;;;;;;;34.47;22.20;;;9.30;91.00;;;;;;5052453;28;20416;-70
2023/04/08 01:52:08;;;;;;;37.05;22.65;;;9.40;91.10;;;;;;5052635;28;20059;-71
2023/04/08 01:55:13;;;;;;;37.50;21.33;;;9.40;91.20;;;;;;5053088;28;20048;-71
2023/04/08 01:58:20;;;;;;;32.63;21.48;;;10.40;91.50;;;;;;5051864;28;20039;-71
2023/04/08 02:01:25;;;;;;;31.95;19.98;;;6.90;90.90;;;;;;5051009;28;20040;-71
2023/04/08 02:04:30;;;;;;;34.05;21.52;;;10.10;91.40;;;;;;5051980;28;20404;-71
2023/04/08 02:07:34;;;;;;;35.75;21.13;;;9.70;91.20;;;;;;5051627;28;20500;-71
2023/04/08 02:10:38;;;;;;;39.53;22.10;;;10.70;91.50;;;;;;5051961;28;20048;-71
2023/04/08 02:13:42;;;;;;;26.60;20.30;;;8.70;91.00;;;;;;5052018;28;20036;-71
2023/04/08 02:16:52;;;;;;;36.72;20.98;;;9.60;90.80;;;;;;5052320;28;20040;-72
2023/04/08 02:20:02;;;;;;;33.10;19.13;;;11.30;91.70;;;;;;5052725;28;20166;-71
2023/04/08 02:23:13;;;;;;;29.00;18.90;;;8.30;91.20;;;;;;5052586;28;20116;-72
2023/04/08 02:26:20;;;;;;;34.38;19.20;;;8.50;90.90;;;;;;5052066;28;20064;-71
2023/04/08 02:29:27;;;;;;;32.00;19.30;;;10.70;91.40;;;;;;5051577;28;20063;-72
2023/04/08 02:32:33;;;;;;;26.00;17.80;;;9.30;92.00;;;;;;5051444;28;20040;-71
2023/04/08 02:35:39;;;;;;;29.33;18.65;;;7.70;91.30;;;;;;5052391;28;20059;-71
2023/04/08 02:38:48;;;;;;;32.65;19.92;;;6.60;91.40;;;;;;5051382;28;20048;-72
2023/04/08 02:41:53;;;;;;;34.13;20.55;;;10.30;92.40;;;;;;5040130;28;20039;-72
2023/04/08 02:44:59;;;;;;;34.65;19.88;;;9.20;92.50;;;;;;5051473;28;20047;-72
2023/04/08 02:48:04;;;;;;;29.10;21.52;;;9.20;92.20;;;;;;5051165;28;20048;-71
2023/04/08 02:51:08;;;;;;;29.50;21.00;;;8.20;92.10;;;;;;5051354;28;20048;-71
2023/04/08 02:54:12;;;;;;;33.78;21.15;;;;;;;;;;5050844;28;20040;-71
2023/04/08 02:57:16;;;;;;;30.67;20.73;;;10.20;92.30;;;;;;5050765;28;20044;-71
2023/04/08 03:00:20;;;;;;;32.00;21.08;;;7.60;91.80;;;;;;5051780;28;20056;-71
2023/04/08 03:03:28;;;;;;;34.63;22.92;;;9.50;91.90;;;;;;5051459;28;20385;-72
2023/04/08 03:06:32;;;;;;;27.45;19.33;;;7.90;91.60;;;;;;5051903;28;20055;-72
2023/04/08 03:09:36;;;;;;;29.75;19.60;;;9.40;92.30;;;;;;5050647;28;20056;-71
2023/04/08 03:12:40;;;;;;;28.45;15.85;;;13.20;93.30;;;;;;5051067;28;20044;-71
2023/04/08 03:15:45;;;;;;;22.02;16.27;;;9.40;92.60;;;;;;5051590;28;20060;-72
2023/04/08 03:18:52;;;;;;;22.55;14.52;;;9.90;92.50;;;;;;5051826;28;20059;-72
2023/04/08 03:21:56;;;;;;;24.17;13.30;;;10.30;92.90;;;;;;5051650;28;20052;-72
2023/04/08 03:25:00;;;;;;;20.77;15.00;;;9.30;92.90;;;;;;5051010;28;20071;-72
2023/04/08 03:28:04;;;;;;;16.23;11.43;;;;;;;;;;5051349;28;20592;-73
2023/04/08 03:31:08;;;;;;;17.10;10.95;;;8.40;92.80;;;;;;5051190;28;20044;-72
2023/04/08 03:34:12;;;;;;;21.17;11.68;;;9.90;93.20;;;;;;5051380;28;20491;-71
2023/04/08 03:37:17;;;;;;;19.80;10.93;;;9.50;93.00;;;;;;5050928;28;20040;-71
2023/04/08 03:40:21;;;;;;;19.48;11.50;;;9.60;93.00;;;;;;5051166;28;20511;-72
2023/04/08 03:43:26;;;;;;;12.98;9.07;;;;;;;;;;5050914;28;20052;-72
2023/04/08 03:46:30;;;;;;;17.83;11.32;;;7.50;92.30;;;;;;5050804;28;20044;-72
2023/04/08 03:49:34;;;;;;;17.13;11.05;;;9.20;93.20;;;;;;5051023;28;20048;-72
2023/04/08 03:52:37;;;;;;;23.70;10.88;;;10.40;93.60;;;;;;5050673;28;20040;-72
2023/04/08 03:55:41;;;;;;;22.33;11.63;;;8.80;93.10;;;;;;5051019;28;20440;-72
2023/04/08 03:58:45;;;;;;;15.18;10.80;;;;;;;;;;5050625;28;20048;-72
2023/04/08 04:01:50;;;;;;;17.08;11.57;;;10.10;93.40;;;;;;5050807;28;20036;-72
2023/04/08 04:04:54;;;;;;;26.05;11.93;;;10.00;93.20;;;;;;5050762;28;20202;-72
2023/04/08 04:07:58;;;;;;;19.70;10.82;;;9.40;92.90;;;;;;5050637;28;20059;-71
2023/04/08 04:11:02;;;;;;;18.48;11.52;;;9.40;93.00;;;;;;5050905;28;20052;-71
2023/04/08 04:14:05;;;;;;;18.88;12.27;;;9.60;92.80;;;;;;5050634;28;20040;-71
2023/04/08 04:17:10;;;;;;;18.98;12.45;;;9.50;92.50;;;;;;5050578;28;20064;-71
2023/04/08 04:20:13;;;;;;;21.70;12.70;;;9.20;93.10;;;;;;5050582;28;20044;-70
2023/04/08 04:23:18;;;;;;;19.95;12.50;;;8.10;93.50;;;;;;5050463;28;20075;-71
2023/04/08 04:26:22;;;;;;;16.65;12.52;;;9.30;93.20;;;;;;5053123;28;20044;-72
2023/04/08 04:29:26;;;;;;;22.00;13.57;;;9.80;93.60;;;;;;5054570;28;20046;-71
2023/04/08 04:32:30;;;;;;;24.27;14.35;;;9.30;93.60;;;;;;5054433;28;20044;-71
2023/04/08 04:35:34;;;;;;;19.30;13.70;;;9.80;94.30;;;;;;5053587;28;20035;-70
2023/04/08 04:38:38;;;;;;;18.33;13.60;;;9.20;94.10;;;;;;5054438;28;20047;-71
2023/04/08 04:41:43;;;;;;;18.95;13.52;;;9.90;93.70;;;;;;5054464;28;20385;-71
2023/04/08 04:44:48;;;;;;;21.98;13.32;;;;;;;;;;5054272;28;20385;-72
2023/04/08 04:47:52;;;;;;;20.08;13.27;;;9.00;94.20;;;;;;5054211;28;20040;-76
2023/04/08 04:50:56;;;;;;;21.50;12.98;;;9.40;94.10;;;;;;5053744;28;20044;-72
2023/04/08 04:54:00;;;;;;;16.23;11.70;;;8.60;94.00;;;;;;5053570;28;20389;-71
2023/04/08 04:57:04;;;;;;;21.45;13.65;;;10.40;94.20;;;;;;5053943;28;20048;-72
2023/04/08 05:00:09;;;;;;;25.17;14.18;;;9.90;93.90;;;;;;5054650;28;20056;-71
2023/04/08 05:03:13;;;;;;;23.40;15.18;;;10.00;93.60;;;;;;5053947;28;20064;-73
2023/04/08 05:06:17;;;;;;;22.42;14.23;;;9.50;93.80;;;;;;5053583;28;20048;-71
2023/04/08 05:09:21;;;;;;;37.92;19.33;;;11.60;94.00;;;;;;5053922;28;20127;-73
2023/04/08 05:12:26;;;;;;;29.35;18.55;;;9.30;93.70;;;;;;5053341;28;20040;-72
2023/04/08 05:15:31;;;;;;;32.97;18.75;;;9.30;93.80;;;;;;5053725;28;20404;-72
2023/04/08 05:18:35;;;;;;;24.77;14.18;;;11.10;94.30;;;;;;5052887;28;20047;-72
2023/04/08 05:21:39;;;;;;;17.60;11.63;;;9.80;93.70;;;;;;5053478;28;20036;-73
2023/04/08 05:24:43;;;;;;;15.07;11.07;;;9.60;93.30;;;;;;5053246;28;20048;-71
2023/04/08 05:27:47;;;;;;;17.50;11.88;;;10.00;93.20;;;;;;5053733;28;20044;-72
2023/04/08 05:30:52;;;;;;;17.08;11.95;;;10.00;93.40;;;;;;5053400;28;20048;-71
2023/04/08 05:33:56;;;;;;;24.40;10.85;;;11.10;94.10;;;;;;5053602;28;20051;-71
2023/04/08 05:37:00;;;;;;;23.33;10.55;;;8.50;92.10;;;;;;5053298;28;20056;-71
2023/04/08 05:40:04;;;;;;;18.45;9.98;;;11.70;92.20;;;;;;5053718;28;20040;-72
2023/04/08 05:43:09;;;;;;;22.08;9.02;;;11.90;91.00;;;;;;5052467;28;20143;-73
2023/04/08 05:46:13;;;;;;;21.98;10.27;;;11.90;91.30;;;;;;5053371;28;20499;-70
2023/04/08 05:49:18;;;;;;;14.75;8.90;;;12.40;91.20;;;;;;5053393;28;20040;-70
2023/04/08 05:52:22;;;;;;;16.67;9.68;;;11.70;91.20;;;;;;5052746;28;20063;-69
2023/04/08 05:55:25;;;;;;;14.32;8.90;;;11.80;91.40;;;;;;5053393;28;20047;-72
2023/04/08 05:58:30;;;;;;;15.70;9.27;;;;;;;;;;5053034;28;20044;-70
2023/04/08 06:01:34;;;;;;;17.33;9.10;;;11.60;91.80;;;;;;5053303;28;20385;-71
2023/04/08 06:04:38;;;;;;;31.75;8.02;;;;;;;;;;5052966;28;20424;-74
2023/04/08 06:07:42;;;;;;;19.00;7.32;;;11.50;92.10;;;;;;5052008;28;20040;-72
2023/04/08 06:10:50;;;;;;;12.60;7.85;;;11.50;92.10;;;;;;5053128;28;20052;-72
2023/04/08 06:13:55;;;;;;;17.98;7.35;;;;;;;;;;5052581;28;20048;-71
2023/04/08 06:16:59;;;;;;;12.75;6.40;;;11.60;92.40;;;;;;5052754;28;20392;-70
2023/04/08 06:20:08;;;;;;;10.40;6.00;;;11.80;92.50;;;;;;5052557;28;20519;-71
2023/04/08 06:23:12;;;;;;;23.17;6.45;;;13.20;92.60;;;;;;5052868;28;20043;-69
2023/04/08 06:26:16;;;;;;;11.77;6.10;;;;;;;;;;5052134;28;20143;-68
2023/04/08 06:29:24;;;;;;;13.50;5.70;;;11.30;91.40;;;;;;5052874;28;20500;-72
2023/04/08 06:32:27;;;;;;;12.43;7.13;;;10.60;93.30;;;;;;5052581;28;20059;-72
2023/04/08 06:35:31;;;;;;;13.13;6.80;;;10.30;94.20;;;;;;5052381;28;20048;-72
2023/04/08 06:38:36;;;;;;;13.65;6.65;;;10.20;95.10;;;;;;5052580;28;20040;-72
2023/04/08 06:41:40;;;;;;;9.15;6.05;;;10.60;95.50;;;;;;5052365;28;20044;-72
2023/04/08 06:44:58;;;;;;;12.82;7.00;;;;;;;;;;5051429;28;20052;-72
2023/04/08 06:48:01;;;;;;;9.75;5.60;;;10.90;94.10;;;;;;5051590;28;20048;-73
2023/04/08 06:51:06;;;;;;;9.10;5.72;;;;;;;;;;5052229;28;20052;-72
2023/04/08 06:54:10;;;;;;;11.38;6.45;;;10.80;94.10;;;;;;5051500;28;20041;-71
2023/04/08 06:57:14;;;;;;;23.98;8.70;;;10.70;94.30;;;;;;5050936;28;20048;-72
2023/04/08 07:00:18;;;;;;;10.05;6.57;;;10.80;94.10;;;;;;5051284;28;20051;-70
2023/04/08 07:03:22;;;;;;;15.25;6.93;;;10.70;94.20;;;;;;5051952;28;20044;-72
2023/04/08 07:06:26;;;;;;;13.60;7.53;;;10.90;94.10;;;;;;5051739;28;20048;-72
2023/04/08 07:09:31;;;;;;;10.45;6.88;;;10.90;93.90;;;;;;5050868;28;20044;-72
2023/04/08 07:12:35;;;;;;;13.18;7.57;;;10.80;94.00;;;;;;5051655;28;20044;-71
2023/04/08 07:15:40;;;;;;;12.85;8.13;;;11.00;94.40;;;;;;5051535;28;20048;-72
2023/04/08 07:18:44;;;;;;;16.50;8.52;;;10.80;94.30;;;;;;5051573;28;20040;-69
2023/04/08 07:21:49;;;;;;;13.93;8.55;;;10.80;94.30;;;;;;5051254;28;20044;-72
2023/04/08 07:24:53;;;;;;;17.17;8.63;;;10.70;94.90;;;;;;5051050;28;20060;-71
2023/04/08 07:27:57;;;;;;;16.98;8.25;;;10.70;95.20;;;;;;5051409;28;20036;-72
2023/04/08 07:31:14;;;;;;;18.88;8.65;;;10.90;95.60;;;;;;5051418;28;20048;-70
2023/04/08 07:34:18;;;;;;;17.02;10.23;;;11.00;95.20;;;;;;5051454;28;20064;-71
2023/04/08 07:37:22;;;;;;;15.63;9.93;;;;;;;;;;5051199;28;20052;-72
2023/04/08 07:40:26;;;;;;;16.63;10.18;;;10.00;96.50;;;;;;5050917;28;20040;-72
2023/04/08 07:43:33;;;;;;;21.70;12.57;;;12.90;98.10;;;;;;5050994;28;20048;-74
2023/04/08 07:46:37;;;;;;;22.20;12.82;;;9.60;97.40;;;;;;5050565;28;20085;-70
2023/04/08 07:49:41;;;;;;;26.13;13.20;;;10.40;97.80;;;;;;5050856;28;20401;-74
2023/04/08 07:52:45;;;;;;;20.35;11.07;;;10.20;97.60;;;;;;5050733;28;20044;-73
2023/04/08 07:55:49;;;;;;;18.13;10.98;;;10.60;96.90;;;;;;5051076;28;20063;-73
2023/04/08 07:58:54;;;;;;;16.63;10.13;;;11.80;96.50;;;;;;5051423;28;20119;-71
2023/04/08 08:01:57;;;;;;;23.92;10.90;;;10.80;96.20;;;;;;5051073;28;20369;-74
2023/04/08 08:05:02;;;;;;;18.98;10.95;;;11.00;95.80;;;;;;5050359;28;20138;-74
2023/04/08 08:08:06;;;;;;;15.77;9.23;;;10.80;95.40;;;;;;5050465;28;20044;-71
2023/04/08 08:11:10;;;;;;;14.23;8.55;;;12.00;95.40;;;;;;5050014;28;20052;-67
2023/04/08 08:14:15;;;;;;;16.25;9.85;;;11.50;95.80;;;;;;5050520;28;20048;-71
2023/04/08 08:17:19;;;;;;;15.65;8.70;;;10.70;95.40;;;;;;5049981;28;20044;-69
2023/04/08 08:20:23;;;;;;;13.90;8.43;;;10.90;95.20;;;;;;5050797;28;20048;-70
2023/04/08 08:23:27;;;;;;;18.63;8.38;;;10.50;94.80;;;;;;5050605;28;20075;-70
2023/04/08 08:26:33;;;;;;;15.20;8.32;;;11.30;95.00;;;;;;5050307;28;20052;-73
2023/04/08 08:29:37;;;;;;;15.27;7.22;;;11.10;95.10;;;;;;5050876;28;20048;-74
2023/04/08 08:32:41;;;;;;;17.33;7.28;;;11.20;94.60;;;;;;5050801;28;20048;-70
2023/04/08 08:35:46;;;;;;;23.88;10.15;;;11.30;94.30;;;;;;5050639;28;20041;-69
2023/04/08 08:38:52;;;;;;;18.98;8.15;;;11.40;94.30;;;;;;5050690;28;20040;-71
2023/04/08 08:41:56;;;;;;;10.27;7.47;;;11.60;94.30;;;;;;5049755;28;20064;-71
2023/04/08 08:45:05;;;;;;;13.60;7.22;;;11.80;93.50;;;;;;5049368;28;20392;-72
2023/04/08 08:48:10;;;;;;;13.60;7.45;;;10.80;93.20;;;;;;5050145;28;20039;-69
2023/04/08 08:51:14;;;;;;;12.65;6.43;;;12.50;93.70;;;;;;5050522;28;20044;-69
2023/04/08 08:54:18;;;;;;;16.25;10.05;;;11.80;93.00;;;;;;5050275;28;20044;-70
2023/04/08 08:57:22;;;;;;;15.23;5.45;;;11.60;92.30;;;;;;5050141;28;20044;-69
2023/04/08 09:00:33;;;;;;;10.38;5.18;;;;;;;;;;5050213;28;20048;-70
2023/04/08 09:03:37;;;;;;;12.27;6.15;;;;;;;;;;5049296;28;20048;-70
2023/04/08 09:06:42;;;;;;;13.63;5.45;;;12.90;91.20;;;;;;5049210;28;20048;-71
2023/04/08 09:09:50;;;;;;;13.15;5.60;;;12.80;90.70;;;;;;5051168;28;20044;-70
2023/04/08 09:12:55;;;;;;;18.40;6.32;;;13.30;90.30;;;;;;5053673;28;20064;-70
2023/04/08 09:16:08;;;;;;;9.20;5.80;;;13.10;90.00;;;;;;5053798;28;20052;-72
2023/04/08 09:19:12;;;;;;;14.65;5.85;;;13.20;89.80;;;;;;5054153;28;20044;-72
2023/04/08 09:22:16;;;;;;;11.52;6.28;;;13.30;88.50;;;;;;5053347;28;20425;-70
2023/04/08 09:25:25;;;;;;;8.07;4.32;;;13.50;87.30;;;;;;5053562;28;20059;-70
2023/04/08 09:28:29;;;;;;;9.13;4.60;;;;;;;;;;5052880;28;20073;-70
2023/04/08 09:31:39;;;;;;;7.65;4.03;;;13.60;86.00;;;;;;5053907;28;20033;-71
2023/04/08 09:34:45;;;;;;;6.32;4.47;;;;;;;;;;5052874;28;20049;-70
2023/04/08 09:37:50;;;;;;;13.82;3.92;;;;;;;;;;5053074;28;20037;-71
2023/04/08 09:40:54;;;;;;;5.28;3.88;;;;;;;;;;5053231;28;20040;-70
2023/04/08 09:44:01;;;;;;;12.43;5.13;;;14.60;86.70;;;;;;5052937;28;20045;-70
2023/04/08 09:47:15;;;;;;;7.50;5.30;;;14.00;86.30;;;;;;5053199;28;20040;-70
2023/04/08 09:50:26;;;;;;;14.63;5.25;;;13.90;87.30;;;;;;5053181;28;20064;-70
2023/04/08 09:53:35;;;;;;;12.03;5.40;;;13.90;87.30;;;;;;5053195;28;20044;-70
2023/04/08 09:57:10;;;;;;;12.73;4.35;;;13.70;85.00;;;;;;5052657;28;20508;-71
2023/04/08 10:00:16;;;;;;;7.30;4.35;;;15.30;85.30;;;;;;5052749;28;20044;-70
2023/04/08 10:03:28;;;;;;;7.03;3.80;;;13.90;86.00;;;;;;5052192;28;20048;-70
2023/04/08 10:06:33;;;;;;;6.75;4.10;;;13.30;85.70;;;;;;5052187;28;20535;-69
2023/04/08 10:09:38;;;;;;;11.02;3.88;;;;;;;;;;5052542;28;20520;-72
2023/04/08 10:12:42;;;;;;;13.15;4.72;;;13.90;85.30;;;;;;5052508;28;20044;-73
2023/04/08 10:15:47;;;;;;;9.65;4.25;;;;;;;;;;5052284;28;20420;-70
2023/04/08 10:18:54;;;;;;;7.88;4.55;;;14.50;86.60;;;;;;5052332;28;20049;-72
2023/04/08 10:21:59;;;;;;;7.03;4.47;;;;;;;;;;5052181;28;20059;-69
2023/04/08 10:25:34;;;;;;;9.30;4.85;;;13.90;87.30;;;;;;5051994;28;20049;-70
2023/04/08 10:28:37;;;;;;;14.73;5.63;;;13.90;87.80;;;;;;5052286;28;20044;-70
2023/04/08 10:31:42;;;;;;;11.40;4.82;;;;;;;;;;5051638;28;20059;-70
2023/04/08 10:34:55;;;;;;;14.93;5.60;;;13.70;88.80;;;;;;5052626;28;20040;-69
2023/04/08 10:37:59;;;;;;;8.63;4.82;;;12.80;88.30;;;;;;5052300;28;20048;-69
2023/04/08 10:41:03;;;;;;;9.82;6.05;;;13.60;90.00;;;;;;5052221;28;20040;-69
2023/04/08 10:44:19;;;;;;;10.23;6.40;;;12.30;89.40;;;;;;5052185;28;20052;-70
2023/04/08 10:47:27;;;;;;;16.48;7.53;;;13.50;90.50;;;;;;5052012;28;20047;-70
2023/04/08 10:50:31;;;;;;;11.20;5.85;;;13.40;91.00;;;;;;5052217;28;20389;-72
2023/04/08 10:53:37;;;;;;;10.05;3.10;;;13.40;91.20;;;;;;5050936;28;20508;-71
2023/04/08 10:56:51;;;;;;;6.82;2.35;;;13.10;91.20;;;;;;5048955;28;20040;-70
2023/04/08 10:59:57;;;;;;;5.32;2.47;;;12.70;92.10;;;;;;5049789;28;20044;-70
2023/04/08 11:03:10;;;;;;;8.68;3.63;;;12.50;92.80;;;;;;5050222;28;20056;-72
2023/04/08 11:06:16;;;;;;;19.75;5.72;;;12.20;93.90;;;;;;5049661;28;20059;-69
2023/04/08 11:09:20;;;;;;;18.90;5.75;;;12.00;95.00;;;;;;5051078;28;20067;-70
2023/04/08 11:12:26;;;;;;;14.45;5.53;;;;;;;;;;5051315;28;20040;-69
2023/04/08 11:15:30;;;;;;;16.38;6.38;;;11.70;95.30;;;;;;5051259;28;20055;-72
2023/04/08 11:18:35;;;;;;;7.07;3.13;;;;;;;;;;5051525;28;20052;-72
2023/04/08 11:21:38;;;;;;;7.07;3.88;;;11.20;94.40;;;;;;5051271;28;20037;-70
2023/04/08 11:24:44;;;;;;;8.30;2.65;;;11.10;94.30;;;;;;5050836;28;20055;-70
2023/04/08 11:27:49;;;;;;;6.07;2.30;;;11.30;94.40;;;;;;5051043;28;20056;-70
2023/04/08 11:30:54;;;;;;;8.00;3.17;;;10.20;94.40;;;;;;5051243;28;20048;-68
2023/04/08 11:33:58;;;;;;;11.70;3.83;;;11.30;95.20;;;;;;5050874;28;20048;-70
2023/04/08 11:37:02;;;;;;;11.60;5.18;;;;;;;;;;5051135;28;20044;-68
2023/04/08 11:40:11;;;;;;;10.13;4.20;;;10.00;95.80;;;;;;5051357;28;20044;-69
2023/04/08 11:43:15;;;;;;;7.07;4.05;;;10.30;96.00;;;;;;5050856;28;20468;-70
2023/04/08 11:46:20;;;;;;;7.30;4.47;;;10.20;96.30;;;;;;5050805;28;20052;-69
2023/04/08 11:49:24;;;;;;;10.15;6.45;;;10.40;96.60;;;;;;5038959;28;20052;-69
2023/04/08 11:52:44;;;;;;;6.45;3.78;;;9.80;96.90;;;;;;5051077;28;20072;-69
2023/04/08 11:55:48;;;;;;;6.88;4.40;;;9.90;97.40;;;;;;5050821;28;20041;-69
2023/04/08 11:58:53;;;;;;;7.63;4.18;;;;;;;;;;5050755;28;20036;-70
2023/04/08 12:01:57;;;;;;;8.90;4.32;;;8.60;98.80;;;;;;5050132;28;20033;-69
2023/04/08 12:05:02;;;;;;;6.85;4.45;;;10.30;99.60;;;;;;5050711;28;20051;-72
2023/04/08 12:08:06;;;;;;;7.22;5.05;;;10.90;99.90;;;;;;5050044;28;20590;-71
2023/04/08 12:11:11;;;;;;;9.75;5.75;;;;;;;;;;5050880;28;20071;-69
2023/04/08 12:14:15;;;;;;;8.10;4.40;;;9.10;99.60;;;;;;5050754;28;20037;-71
2023/04/08 12:17:22;;;;;;;7.32;4.32;;;10.30;99.90;;;;;;5049666;28;20048;-69
2023/04/08 12:20:26;;;;;;;5.05;3.92;;;9.90;99.80;;;;;;5038329;28;20040;-71
2023/04/08 12:23:30;;;;;;;4.28;3.10;;;9.90;99.70;;;;;;5049921;28;20053;-72
2023/04/08 12:26:34;;;;;;;4.07;2.70;;;;;;;;;;5050343;28;20524;-69
2023/04/08 12:29:38;;;;;;;4.15;2.70;;;9.80;99.60;;;;;;5050502;28;20045;-70
2023/04/08 12:32:45;;;;;;;3.60;1.92;;;;;;;;;;5038399;28;20052;-70
2023/04/08 12:35:49;;;;;;;3.53;2.33;;;9.90;99.50;;;;;;5050435;28;20365;-71
2023/04/08 12:38:53;;;;;;;5.03;3.08;;;9.40;99.90;;;;;;5050491;28;20628;-70
2023/04/08 12:41:58;;;;;;;6.88;4.75;;;10.20;99.90;;;;;;5050407;28;20044;-73
2023/04/08 12:45:02;;;;;;;8.05;4.78;;;10.40;99.90;;;;;;5050151;28;20058;-70
2023/04/08 12:48:06;;;;;;;5.32;4.05;;;10.40;99.90;;;;;;5054452;28;20040;-71
2023/04/08 12:51:10;;;;;;;6.90;3.63;;;11.60;99.90;;;;;;5054143;28;20500;-72
2023/04/08 12:54:14;;;;;;;7.18;4.03;;;10.90;99.90;;;;;;5054249;28;20040;-70
2023/04/08 12:57:18;;;;;;;6.50;4.55;;;9.90;99.90;;;;;;5054398;28;20131;-71
2023/04/08 13:00:22;;;;;;;6.00;3.97;;;10.70;99.90;;;;;;5053330;28;20032;-71
2023/04/08 13:03:29;;;;;;;5.05;3.53;;;11.10;99.90;;;;;;5054183;28;20052;-73
2023/04/08 13:06:33;;;;;;;5.40;3.22;;;11.60;99.90;;;;;;5053903;28;20052;-72
2023/04/08 13:09:37;;;;;;;4.00;2.50;;;11.10;99.90;;;;;;5054281;28;20039;-73
2023/04/08 13:12:40;;;;;;;5.60;3.13;;;10.80;99.80;;;;;;5053905;28;20044;-73
2023/04/08 13:15:45;;;;;;;3.92;2.30;;;10.00;98.70;;;;;;5053920;28;20456;-72
2023/04/08 13:18:49;;;;;;;4.55;2.58;;;11.10;98.40;;;;;;5054020;28;20040;-72
2023/04/08 13:21:53;;;;;;;5.90;3.00;;;11.10;98.20;;;;;;5053931;28;20376;-72
2023/04/08 13:24:57;;;;;;;4.00;2.72;;;11.20;97.80;;;;;;5053310;28;20056;-71
2023/04/08 13:28:01;;;;;;;6.75;3.35;;;11.10;97.40;;;;;;5053631;28;20044;-69
2023/04/08 13:31:05;;;;;;;7.63;3.90;;;14.10;98.00;;;;;;5053814;28;20653;-73
2023/04/08 13:34:09;;;;;;;5.55;3.28;;;10.80;96.90;;;;;;5053170;28;20052;-72
2023/04/08 13:37:13;;;;;;;12.25;6.28;;;11.30;96.60;;;;;;5053305;28;20044;-73
2023/04/08 13:40:17;;;;;;;10.43;4.30;;;9.60;96.30;;;;;;5053563;28;20044;-72
2023/04/08 13:43:21;;;;;;;4.97;2.60;;;;;;;;;;5052712;28;20044;-72
2023/04/08 13:46:25;;;;;;;3.40;2.20;;;12.30;95.50;;;;;;5053140;28;20401;-71
2023/04/08 13:49:30;;;;;;;2.83;1.85;;;11.70;94.70;;;;;;5053565;28;20040;-72
2023/04/08 13:52:34;;;;;;;3.03;1.77;;;11.30;94.60;;;;;;5052329;28;20048;-72
2023/04/08 13:55:38;;;;;;;3.45;2.10;;;11.40;94.30;;;;;;5052785;28;20637;-71
2023/04/08 13:58:42;;;;;;;4.30;2.22;;;11.40;94.30;;;;;;5053002;28;20496;-72
2023/04/08 14:01:46;;;;;;;3.67;2.00;;;12.30;94.40;;;;;;5052747;28;20496;-71
2023/04/08 14:04:53;;;;;;;4.50;2.10;;;11.30;94.30;;;;;;5052652;28;20056;-71
2023/04/08 14:07:57;;;;;;;4.05;2.88;;;11.20;94.80;;;;;;5052806;28;20040;-70
2023/04/08 14:11:01;;;;;;;4.45;2.60;;;11.90;94.90;;;;;;5052940;28;20048;-72
2023/04/08 14:14:05;;;;;;;4.75;2.60;;;;;;;;;;5051769;28;20044;-73
2023/04/08 14:17:09;;;;;;;2.92;2.03;;;10.60;94.20;;;;;;5051867;28;20036;-70
2023/04/08 14:20:13;;;;;;;3.85;2.55;;;9.60;94.20;;;;;;5052716;28;20056;-72
2023/04/08 14:23:17;;;;;;;5.28;2.83;;;11.20;94.90;;;;;;5052449;28;20044;-72
2023/04/08 14:26:21;;;;;;;5.78;3.58;;;11.20;95.60;;;;;;5039741;28;20051;-70
2023/04/08 14:29:25;;;;;;;4.90;3.38;;;11.40;96.20;;;;;;5052361;28;20052;-72
2023/04/08 14:32:30;;;;;;;8.95;3.13;;;11.10;96.20;;;;;;5051970;28;20036;-72
2023/04/08 14:35:35;;;;;;;5.85;3.70;;;11.10;96.30;;;;;;5052369;28;20048;-70
2023/04/08 14:38:39;;;;;;;6.10;3.13;;;12.00;96.60;;;;;;5052263;28;20055;-70
2023/04/08 14:41:43;;;;;;;4.93;2.90;;;11.40;96.40;;;;;;5052169;28;20044;-70
2023/04/08 14:44:47;;;;;;;5.10;2.83;;;11.30;96.00;;;;;;5050048;28;20151;-71
2023/04/08 14:47:51;;;;;;;4.97;2.35;;;11.50;96.20;;;;;;5052263;28;20056;-71
2023/04/08 14:50:56;;;;;;;4.15;2.45;;;;;;;;;;5051421;28;20048;-70
2023/04/08 14:54:00;;;;;;;3.70;2.88;;;11.60;95.30;;;;;;5052070;28;20398;-70
2023/04/08 14:57:04;;;;;;;4.70;2.80;;;11.60;95.30;;;;;;5051653;28;20044;-71
2023/04/08 15:00:09;;;;;;;5.43;2.88;;;13.20;95.70;;;;;;5052096;28;20405;-71
2023/04/08 15:03:14;;;;;;;4.93;2.60;;;12.20;95.70;;;;;;5051851;28;20044;-70
2023/04/08 15:06:32;;;;;;;3.67;2.90;;;11.20;95.40;;;;;;5051434;28;20064;-72
2023/04/08 15:09:36;;;;;;;5.53;2.80;;;;;;;;;;5051125;28;20052;-71
2023/04/08 15:12:40;;;;;;;5.57;2.95;;;;;;;;;;5051839;28;20044;-71
2023/04/08 15:15:44;;;;;;;5.10;3.20;;;11.70;94.90;;;;;;5051692;28;20029;-72
2023/04/08 15:18:48;;;;;;;7.15;3.65;;;11.50;95.40;;;;;;5050821;28;20051;-71
2023/04/08 15:21:52;;;;;;;5.00;3.33;;;11.40;95.40;;;;;;5050575;28;20508;-71
2023/04/08 15:24:56;;;;;;;6.95;4.13;;;11.50;95.50;;;;;;5051305;28;20048;-73
2023/04/08 15:28:01;;;;;;;7.65;3.78;;;11.50;95.50;;;;;;5051797;28;20408;-71
2023/04/08 15:31:05;;;;;;;7.82;4.43;;;11.50;95.30;;;;;;5051509;28;20048;-72
2023/04/08 15:34:09;;;;;;;7.30;4.28;;;10.50;95.30;;;;;;5051468;28;20040;-71
2023/04/08 15:37:13;;;;;;;6.70;3.92;;;11.30;95.60;;;;;;5027520;28;20507;-71
2023/04/08 15:40:17;;;;;;;6.35;3.67;;;11.40;95.10;;;;;;5051486;28;20053;-69
2023/04/08 15:43:21;;;;;;;7.53;4.00;;;11.10;95.20;;;;;;5051186;28;20056;-71
2023/04/08 15:46:25;;;;;;;7.55;4.40;;;10.70;95.20;;;;;;5050472;28;20048;-72
2023/04/08 15:49:28;;;;;;;4.78;3.75;;;11.60;95.50;;;;;;5048348;28;20055;-71
2023/04/08 15:52:34;;;;;;;7.72;4.03;;;11.20;95.20;;;;;;5050480;28;20052;-73
2023/04/08 15:55:39;;;;;;;6.47;4.10;;;11.30;95.30;;;;;;5048589;28;20048;-71
2023/04/08 15:58:44;;;;;;;8.38;4.07;;;9.00;94.30;;;;;;5049687;28;20405;-71
2023/04/08 16:01:49;;;;;;;8.05;4.65;;;11.60;95.40;;;;;;5050169;28;20048;-71
2023/04/08 16:04:52;;;;;;;8.07;3.92;;;11.10;95.20;;;;;;5049807;28;20080;-70
2023/04/08 16:07:56;;;;;;;8.27;5.00;;;11.00;95.50;;;;;;5050379;28;20048;-71